createdAt,value
2023-07-23T00:01:08.651Z,101041.06
2023-07-23T00:03:35.210Z,101035.75
2023-07-23T00:06:06.031Z,101035.88
2023-07-23T00:08:35.757Z,101039.38
2023-07-23T00:11:02.320Z,101042.03
2023-07-23T00:13:28.855Z,101036.03
2023-07-23T00:15:55.491Z,101033.22
2023-07-23T00:18:22.100Z,101027.94
2023-07-23T00:20:48.558Z,101024.31
2023-07-23T00:23:14.953Z,101015.63
2023-07-23T00:25:41.476Z,101020.19
2023-07-23T00:28:08.484Z,101020.47
2023-07-23T00:30:35.943Z,101025.03
2023-07-23T00:33:02.607Z,101009.03
2023-07-23T00:35:29.086Z,101010.59
2023-07-23T00:37:55.551Z,101011.28
2023-07-23T00:40:22.074Z,101015.63
2023-07-23T00:42:48.500Z,101011.28
2023-07-23T00:45:14.976Z,101003.31
2023-07-23T00:47:43.779Z,101000.53
2023-07-23T00:50:13.925Z,101002.72
2023-07-23T00:52:41.283Z,100991.28
2023-07-23T00:55:08.527Z,100974.25
2023-07-23T00:57:35.062Z,100968.94
2023-07-23T01:00:06.803Z,100968.81
2023-07-23T01:02:33.692Z,100967.72
2023-07-23T01:05:01.080Z,100964.22
2023-07-23T01:07:30.760Z,100963.38
2023-07-23T01:09:57.714Z,100953.63
2023-07-23T01:12:25.248Z,100945.78
2023-07-23T01:14:51.767Z,100936.28
2023-07-23T01:17:20.173Z,100939.91
2023-07-23T01:19:47.437Z,100931.94
2023-07-23T01:22:13.905Z,100942.41
2023-07-23T01:24:40.420Z,100933.63
2023-07-23T01:27:07.099Z,100931.94
2023-07-23T01:29:33.511Z,100931.22
2023-07-23T01:32:00.008Z,100921.69
2023-07-23T01:34:27.330Z,100929.34
2023-07-23T01:36:54.354Z,100932.78
2023-07-23T01:39:21.971Z,100923.84
2023-07-23T01:41:48.676Z,100919.97
2023-07-23T01:44:15.133Z,100919.84
2023-07-23T01:46:41.581Z,100916.84
2023-07-23T01:49:08.022Z,100911.56
2023-07-23T01:51:34.482Z,100911.78
2023-07-23T01:54:03.619Z,100892.25
2023-07-23T01:56:30.036Z,100897.31
2023-07-23T01:58:56.514Z,100902.03
2023-07-23T02:01:23.057Z,100901.44
2023-07-23T02:03:49.775Z,100890.56
2023-07-23T02:06:16.293Z,100894.78
2023-07-23T02:08:42.723Z,100886.81
2023-07-23T02:11:09.143Z,100878.75
2023-07-23T02:13:35.592Z,100867.28
2023-07-23T02:16:05.327Z,100867.88
2023-07-23T02:18:35.046Z,100859.78
2023-07-23T02:21:04.332Z,100847.38
2023-07-23T02:23:30.709Z,100854.63
2023-07-23T02:25:57.177Z,100848.84
2023-07-23T02:28:23.617Z,100847.16
2023-07-23T02:31:01.783Z,100852.59
2023-07-23T02:33:28.272Z,100846.34
2023-07-23T02:35:54.723Z,100842.00
2023-07-23T02:38:21.176Z,100833.06
2023-07-23T02:40:47.573Z,100827.50
2023-07-23T02:43:14.065Z,100830.00
2023-07-23T02:45:41.008Z,100823.88
2023-07-23T02:48:08.403Z,100819.41
2023-07-23T02:50:34.976Z,100817.75
2023-07-23T02:53:04.752Z,100812.69
2023-07-23T02:55:33.833Z,100811.72
2023-07-23T02:58:02.029Z,100813.41
2023-07-23T03:00:32.389Z,100804.47
2023-07-23T03:02:58.989Z,100793.00
2023-07-23T03:05:25.725Z,100804.47
2023-07-23T03:07:55.846Z,100793.88
2023-07-23T03:10:22.425Z,100791.22
2023-07-23T03:12:48.953Z,100789.53
2023-07-23T03:15:15.343Z,100783.38
2023-07-23T03:17:41.793Z,100778.94
2023-07-23T03:20:11.561Z,100776.41
2023-07-23T03:22:41.400Z,100775.56
2023-07-23T03:25:08.466Z,100764.94
2023-07-23T03:27:35.025Z,100768.56
2023-07-23T03:30:04.693Z,100765.09
2023-07-23T03:32:31.397Z,100757.94
2023-07-23T03:34:57.854Z,100754.47
2023-07-23T03:37:24.288Z,100750.00
2023-07-23T03:39:50.735Z,100754.59
2023-07-23T03:42:17.156Z,100753.75
2023-07-23T03:44:43.632Z,100750.41
2023-07-23T03:47:17.820Z,100747.63
2023-07-23T03:49:46.137Z,100735.31
2023-07-23T03:52:13.369Z,100747.63
2023-07-23T03:54:40.260Z,100734.50
2023-07-23T03:57:07.456Z,100731.13
2023-07-23T03:59:44.404Z,100731.13
2023-07-23T04:02:11.362Z,100737.28
2023-07-23T04:04:39.590Z,100733.78
2023-07-23T04:07:07.360Z,100736.13
2023-07-23T04:09:34.302Z,100737.91
2023-07-23T04:12:02.231Z,100735.28
2023-07-23T04:14:28.753Z,100745.75
2023-07-23T04:16:56.220Z,100734.44
2023-07-23T04:19:23.367Z,100733.47
2023-07-23T04:21:50.353Z,100736.25
2023-07-23T04:24:16.904Z,100731.94
2023-07-23T04:26:43.428Z,100726.75
2023-07-23T04:29:10.198Z,100730.25
2023-07-23T04:31:38.180Z,100726.63
2023-07-23T04:34:04.920Z,100728.56
2023-07-23T04:36:31.491Z,100733.72
2023-07-23T04:38:58.159Z,100728.31
2023-07-23T04:41:24.641Z,100723.00
2023-07-23T04:43:51.169Z,100724.56
2023-07-23T04:46:17.631Z,100726.34
2023-07-23T04:48:44.145Z,100714.91
2023-07-23T04:51:11.013Z,100718.25
2023-07-23T04:53:37.639Z,100716.69
2023-07-23T04:56:06.142Z,100719.34
2023-07-23T04:58:33.336Z,100707.91
2023-07-23T05:01:07.170Z,100706.81
2023-07-23T05:03:33.683Z,100703.34
2023-07-23T05:06:03.959Z,100710.13
2023-07-23T05:08:30.820Z,100718.56
2023-07-23T05:11:02.429Z,100712.41
2023-07-23T05:13:29.935Z,100709.25
2023-07-23T05:15:58.431Z,100706.22
2023-07-23T05:18:25.134Z,100710.41
2023-07-23T05:20:51.615Z,100707.47
2023-07-23T05:23:18.829Z,100708.44
2023-07-23T05:25:45.763Z,100713.75
2023-07-23T05:28:12.254Z,100706.75
2023-07-23T05:30:39.764Z,100709.31
2023-07-23T05:33:08.613Z,100706.38
2023-07-23T05:35:35.456Z,100701.91
2023-07-23T05:38:02.000Z,100705.41
2023-07-23T05:40:28.520Z,100705.53
2023-07-23T05:42:56.575Z,100707.19
2023-07-23T05:45:23.577Z,100704.81
2023-07-23T05:47:50.105Z,100712.66
2023-07-23T05:50:16.696Z,100713.88
2023-07-23T05:52:43.237Z,100709.69
2023-07-23T05:55:09.733Z,100715.13
2023-07-23T05:57:36.268Z,100713.16
2023-07-23T06:00:03.306Z,100712.34
2023-07-23T06:02:29.695Z,100713.31
2023-07-23T06:04:56.169Z,100712.06
2023-07-23T06:07:22.654Z,100711.22
2023-07-23T06:09:49.114Z,100714.72
2023-07-23T06:12:15.486Z,100705.78
2023-07-23T06:14:42.079Z,100716.25
2023-07-23T06:17:09.126Z,100707.47
2023-07-23T06:19:35.761Z,100712.06
2023-07-23T06:22:02.321Z,100708.44
2023-07-23T06:24:28.879Z,100708.72
2023-07-23T06:26:55.433Z,100715.72
2023-07-23T06:29:21.872Z,100715.56
2023-07-23T06:31:48.329Z,100711.09
2023-07-23T06:34:15.015Z,100713.06
2023-07-23T06:36:41.660Z,100712.06
2023-07-23T06:39:08.078Z,100721.84
2023-07-23T06:41:34.514Z,100716.53
2023-07-23T06:44:00.993Z,100722.34
2023-07-23T06:46:27.521Z,100724.88
2023-07-23T06:48:54.127Z,100725.00
2023-07-23T06:51:20.585Z,100721.41
2023-07-23T06:53:47.068Z,100727.53
2023-07-23T06:56:17.531Z,100724.88
2023-07-23T06:58:43.986Z,100733.25
2023-07-23T07:01:10.612Z,100720.66
2023-07-23T07:03:37.102Z,100736.03
2023-07-23T07:06:05.174Z,100732.66
2023-07-23T07:08:32.437Z,100733.47
2023-07-23T07:11:01.100Z,100723.75
2023-07-23T07:13:28.649Z,100730.72
2023-07-23T07:15:55.238Z,100727.81
2023-07-23T07:18:21.994Z,100721.25
2023-07-23T07:21:02.455Z,100716.53
2023-07-23T07:23:30.265Z,100715.94
2023-07-23T07:25:57.954Z,100723.22
2023-07-23T07:28:25.947Z,100719.84
2023-07-23T07:30:56.689Z,100721.53
2023-07-23T07:33:23.253Z,100718.75
2023-07-23T07:35:50.738Z,100721.53
2023-07-23T07:38:17.100Z,100717.91
2023-07-23T07:40:43.605Z,100716.22
2023-07-23T07:43:10.052Z,100708.97
2023-07-23T07:45:36.502Z,100711.63
2023-07-23T07:48:03.075Z,100715.25
2023-07-23T07:50:29.534Z,100716.47
2023-07-23T07:52:56.109Z,100707.13
2023-07-23T07:55:22.607Z,100720.13
2023-07-23T07:57:49.499Z,100723.75
2023-07-23T08:00:16.241Z,100713.13
2023-07-23T08:02:43.027Z,100718.44
2023-07-23T08:05:10.445Z,100711.16
2023-07-23T08:07:37.492Z,100717.19
2023-07-23T08:10:04.454Z,100721.53
2023-07-23T08:12:31.788Z,100718.75
2023-07-23T08:14:59.507Z,100716.91
2023-07-23T08:17:26.282Z,100721.41
2023-07-23T08:19:53.036Z,100715.94
2023-07-23T08:22:19.489Z,100709.97
2023-07-23T08:24:46.295Z,100717.63
2023-07-23T08:27:18.407Z,100717.63
2023-07-23T08:29:47.599Z,100719.31
2023-07-23T08:32:20.433Z,100724.63
2023-07-23T08:34:47.807Z,100711.22
2023-07-23T08:37:14.573Z,100711.09
2023-07-23T08:39:41.340Z,100715.44
2023-07-23T08:42:15.440Z,100717.94
2023-07-23T08:44:57.141Z,100713.38
2023-07-23T08:47:24.157Z,100710.56
2023-07-23T08:49:51.939Z,100720.34
2023-07-23T08:52:21.003Z,100714.91
2023-07-23T08:54:48.374Z,100721.91
2023-07-23T08:57:14.846Z,100719.94
2023-07-23T08:59:42.145Z,100716.47
2023-07-23T09:02:12.412Z,100712.69
2023-07-23T09:04:38.977Z,100718.00
2023-07-23T09:07:11.521Z,100711.00
2023-07-23T09:09:38.193Z,100703.78
2023-07-23T09:12:05.056Z,100701.00
2023-07-23T09:14:41.777Z,100715.78
2023-07-23T09:17:17.364Z,100719.16
2023-07-23T09:19:44.097Z,100718.06
2023-07-23T09:22:10.589Z,100708.28
2023-07-23T09:24:37.326Z,100720.56
2023-07-23T09:27:04.463Z,100713.31
2023-07-23T09:29:38.871Z,100711.38
2023-07-23T09:32:16.232Z,100713.75
2023-07-23T09:34:48.898Z,100716.38
2023-07-23T09:37:17.222Z,100718.06
2023-07-23T09:39:43.730Z,100731.19
2023-07-23T09:42:11.955Z,100719.75
2023-07-23T09:44:43.143Z,100727.72
2023-07-23T09:47:09.809Z,100721.59
2023-07-23T09:49:37.677Z,100719.75
2023-07-23T09:52:08.880Z,100717.81
2023-07-23T09:54:38.321Z,100723.81
2023-07-23T09:57:05.290Z,100722.84
2023-07-23T09:59:32.055Z,100714.75
2023-07-23T10:01:58.893Z,100721.59
2023-07-23T10:04:29.994Z,100715.03
2023-07-23T10:06:56.788Z,100708.38
2023-07-23T10:09:24.319Z,100715.09
2023-07-23T10:11:50.868Z,100721.13
2023-07-23T10:14:17.387Z,100718.47
2023-07-23T10:16:45.489Z,100722.91
2023-07-23T10:19:14.624Z,100725.31
2023-07-23T10:21:41.411Z,100720.00
2023-07-23T10:24:07.929Z,100733.28
2023-07-23T10:26:47.382Z,100730.63
2023-07-23T10:29:19.430Z,100730.63
2023-07-23T10:31:46.953Z,100733.53
2023-07-23T10:34:28.556Z,100737.16
2023-07-23T10:37:13.397Z,100742.72
2023-07-23T10:39:44.622Z,100744.41
2023-07-23T10:42:11.182Z,100732.13
2023-07-23T10:44:40.494Z,100739.13
2023-07-23T10:47:29.391Z,100749.72
2023-07-23T10:50:12.973Z,100742.72
2023-07-23T10:52:39.532Z,100745.09
2023-07-23T10:55:10.781Z,100749.44
2023-07-23T10:57:42.527Z,100743.88
2023-07-23T11:00:25.322Z,100747.22
2023-07-23T11:02:54.715Z,100738.28
2023-07-23T11:05:22.627Z,100743.34
2023-07-23T11:08:13.304Z,100733.41
2023-07-23T11:10:48.865Z,100743.91
2023-07-23T11:13:17.110Z,100741.81
2023-07-23T11:15:45.908Z,100737.94
2023-07-23T11:18:13.087Z,100746.34
2023-07-23T11:20:45.462Z,100731.94
2023-07-23T11:23:12.821Z,100735.16
2023-07-23T11:25:40.144Z,100742.59
2023-07-23T11:28:10.056Z,100723.84
2023-07-23T11:30:36.683Z,100735.06
2023-07-23T11:33:06.806Z,100728.63
2023-07-23T11:35:33.439Z,100711.56
2023-07-23T11:38:03.548Z,100726.25
2023-07-23T11:40:30.000Z,100725.41
2023-07-23T11:42:56.745Z,100723.59
2023-07-23T11:45:23.452Z,100731.28
2023-07-23T11:47:54.937Z,100736.31
2023-07-23T11:50:22.561Z,100729.88
2023-07-23T11:52:51.827Z,100726.13
2023-07-23T11:55:24.261Z,100731.28
2023-07-23T11:58:03.866Z,100720.53
2023-07-23T12:00:32.603Z,100733.53
2023-07-23T12:02:59.701Z,100728.63
2023-07-23T12:05:26.339Z,100731.28
2023-07-23T12:07:53.733Z,100736.59
2023-07-23T12:10:21.246Z,100725.00
2023-07-23T12:12:48.772Z,100719.13
2023-07-23T12:15:17.057Z,100714.91
2023-07-23T12:17:44.834Z,100719.66
2023-07-23T12:20:16.663Z,100719.41
2023-07-23T12:22:50.052Z,100715.06
2023-07-23T12:25:16.717Z,100719.41
2023-07-23T12:27:43.441Z,100715.63
2023-07-23T12:30:10.262Z,100717.16
2023-07-23T12:32:36.925Z,100716.56
2023-07-23T12:35:03.937Z,100711.81
2023-07-23T12:37:32.581Z,100710.81
2023-07-23T12:39:59.079Z,100708.00
2023-07-23T12:42:25.519Z,100712.34
2023-07-23T12:44:51.952Z,100701.47
2023-07-23T12:47:19.392Z,100704.81
2023-07-23T12:49:47.636Z,100703.50
2023-07-23T12:52:18.110Z,100690.44
2023-07-23T12:54:44.588Z,100706.66
2023-07-23T12:57:11.523Z,100701.88
2023-07-23T12:59:38.050Z,100708.03
2023-07-23T13:02:04.912Z,100699.91
2023-07-23T13:04:31.589Z,100692.94
2023-07-23T13:06:58.087Z,100691.78
2023-07-23T13:09:24.550Z,100694.00
2023-07-23T13:11:51.062Z,100694.53
2023-07-23T13:14:17.567Z,100690.91
2023-07-23T13:16:44.078Z,100692.59
2023-07-23T13:19:10.546Z,100691.59
2023-07-23T13:21:37.134Z,100690.31
2023-07-23T13:24:04.115Z,100681.34
2023-07-23T13:26:30.745Z,100685.00
2023-07-23T13:28:57.405Z,100699.28
2023-07-23T13:31:23.919Z,100707.41
2023-07-23T13:33:51.487Z,100713.72
2023-07-23T13:36:18.043Z,100702.09
2023-07-23T13:38:44.528Z,100704.28
2023-07-23T13:41:11.042Z,100692.38
2023-07-23T13:43:37.475Z,100685.31
2023-07-23T13:46:03.907Z,100697.97
2023-07-23T13:48:30.501Z,100700.47
2023-07-23T13:50:56.932Z,100689.59
2023-07-23T13:53:23.427Z,100683.63
2023-07-23T13:55:49.910Z,100692.69
2023-07-23T13:58:16.351Z,100680.28
2023-07-23T14:00:42.920Z,100677.91
2023-07-23T14:03:09.636Z,100679.28
2023-07-23T14:05:36.378Z,100677.00
2023-07-23T14:08:03.660Z,100671.53
2023-07-23T14:10:30.356Z,100678.09
2023-07-23T14:12:57.179Z,100678.47
2023-07-23T14:15:23.639Z,100681.50
2023-07-23T14:17:50.154Z,100671.38
2023-07-23T14:20:16.619Z,100674.88
2023-07-23T14:22:44.617Z,100666.56
2023-07-23T14:25:11.274Z,100672.56
2023-07-23T14:27:37.750Z,100663.94
2023-07-23T14:30:04.482Z,100665.00
2023-07-23T14:32:31.019Z,100675.00
2023-07-23T14:34:57.928Z,100660.03
2023-07-23T14:37:25.768Z,100652.50
2023-07-23T14:39:52.286Z,100653.38
2023-07-23T14:42:18.730Z,100650.06
2023-07-23T14:44:45.212Z,100651.88
2023-07-23T14:47:11.706Z,100649.38
2023-07-23T14:49:38.961Z,100645.34
2023-07-23T14:52:05.830Z,100657.34
2023-07-23T14:54:34.608Z,100653.47
2023-07-23T14:57:04.412Z,100651.00
2023-07-23T14:59:30.853Z,100645.72
2023-07-23T15:01:57.417Z,100650.19
2023-07-23T15:04:23.883Z,100646.88
2023-07-23T15:06:50.442Z,100646.00
2023-07-23T15:09:17.371Z,100646.34
2023-07-23T15:11:44.070Z,100660.31
2023-07-23T15:14:10.863Z,100654.97
2023-07-23T15:16:37.754Z,100643.00
2023-07-23T15:19:04.618Z,100662.34
2023-07-23T15:21:34.789Z,100664.56
2023-07-23T15:24:03.441Z,100660.22
2023-07-23T15:26:32.595Z,100653.09
2023-07-23T15:29:00.652Z,100655.75
2023-07-23T15:31:28.088Z,100660.22
2023-07-23T15:33:55.352Z,100660.22
2023-07-23T15:36:21.841Z,100660.75
2023-07-23T15:38:49.344Z,100661.09
2023-07-23T15:41:16.054Z,100660.31
2023-07-23T15:43:42.743Z,100645.28
2023-07-23T15:46:09.151Z,100654.31
2023-07-23T15:48:35.638Z,100651.78
2023-07-23T15:51:02.329Z,100647.75
2023-07-23T15:53:28.724Z,100650.59
2023-07-23T15:55:55.157Z,100655.59
2023-07-23T15:58:21.562Z,100651.94
2023-07-23T16:00:48.260Z,100655.31
2023-07-23T16:03:14.766Z,100647.94
2023-07-23T16:05:41.484Z,100640.78
2023-07-23T16:08:08.016Z,100641.44
2023-07-23T16:10:34.476Z,100635.28
2023-07-23T16:13:01.058Z,100643.47
2023-07-23T16:15:27.614Z,100638.94
2023-07-23T16:17:54.098Z,100649.47
2023-07-23T16:20:21.900Z,100643.28
2023-07-23T16:22:48.418Z,100632.16
2023-07-23T16:25:15.137Z,100644.16
2023-07-23T16:27:41.741Z,100640.81
2023-07-23T16:30:08.950Z,100642.81
2023-07-23T16:32:38.109Z,100633.78
2023-07-23T16:35:05.615Z,100641.50
2023-07-23T16:37:37.520Z,100634.47
2023-07-23T16:40:05.885Z,100629.13
2023-07-23T16:42:32.908Z,100621.13
2023-07-23T16:45:03.051Z,100625.47
2023-07-23T16:47:29.637Z,100623.63
2023-07-23T16:49:56.170Z,100612.13
2023-07-23T16:52:23.275Z,100595.78
2023-07-23T16:54:49.773Z,100611.47
2023-07-23T16:57:18.760Z,100610.97
2023-07-23T16:59:47.772Z,100606.97
2023-07-23T17:02:17.849Z,100598.94
2023-07-23T17:04:45.132Z,100611.31
2023-07-23T17:07:12.287Z,100614.97
2023-07-23T17:09:39.901Z,100612.00
2023-07-23T17:12:07.115Z,100607.19
2023-07-23T17:14:33.761Z,100605.53
2023-07-23T17:17:02.628Z,100611.53
2023-07-23T17:19:29.581Z,100600.88
2023-07-23T17:21:56.216Z,100596.34
2023-07-23T17:24:22.712Z,100602.84
2023-07-23T17:26:49.299Z,100598.81
2023-07-23T17:29:15.834Z,100603.47
2023-07-23T17:31:42.428Z,100599.28
2023-07-23T17:34:08.931Z,100607.31
2023-07-23T17:36:35.423Z,100600.47
2023-07-23T17:39:02.130Z,100605.13
2023-07-23T17:41:28.526Z,100601.09
2023-07-23T17:43:55.020Z,100618.47
2023-07-23T17:46:21.768Z,100612.59
2023-07-23T17:48:48.230Z,100620.94
2023-07-23T17:51:14.621Z,100615.09
2023-07-23T17:53:41.021Z,100620.78
2023-07-23T17:56:07.409Z,100616.59
2023-07-23T17:58:33.905Z,100613.41
2023-07-23T18:01:00.372Z,100616.06
2023-07-23T18:03:26.925Z,100606.56
2023-07-23T18:05:56.529Z,100614.72
2023-07-23T18:08:23.053Z,100611.38
2023-07-23T18:10:49.469Z,100606.03
2023-07-23T18:13:15.874Z,100608.03
2023-07-23T18:15:42.443Z,100605.53
2023-07-23T18:18:08.921Z,100590.34
2023-07-23T18:20:35.334Z,100597.50
2023-07-23T18:23:02.255Z,100601.34
2023-07-23T18:25:28.715Z,100605.84
2023-07-23T18:27:56.092Z,100603.31
2023-07-23T18:30:22.580Z,100590.16
2023-07-23T18:32:49.069Z,100594.66
2023-07-23T18:35:15.774Z,100601.81
2023-07-23T18:37:42.230Z,100616.31
2023-07-23T18:40:09.026Z,100620.00
2023-07-23T18:42:35.480Z,100611.13
2023-07-23T18:45:03.834Z,100597.97
2023-07-23T18:47:30.289Z,100602.31
2023-07-23T18:49:56.717Z,100590.97
2023-07-23T18:52:25.119Z,100595.47
2023-07-23T18:54:52.782Z,100591.28
2023-07-23T18:57:19.260Z,100577.25
2023-07-23T18:59:45.737Z,100595.94
2023-07-23T19:02:12.114Z,100592.63
2023-07-23T19:04:46.403Z,100591.94
2023-07-23T19:07:14.011Z,100594.44
2023-07-23T19:09:40.565Z,100593.91
2023-07-23T19:12:07.968Z,100586.91
2023-07-23T19:14:34.436Z,100582.75
2023-07-23T19:17:04.168Z,100589.88
2023-07-23T19:19:30.780Z,100588.22
2023-07-23T19:21:57.200Z,100584.88
2023-07-23T19:24:23.651Z,100581.53
2023-07-23T19:26:50.124Z,100586.03
2023-07-23T19:29:16.511Z,100587.03
2023-07-23T19:31:42.953Z,100590.53
2023-07-23T19:34:09.520Z,100596.88
2023-07-23T19:36:37.932Z,100590.81
2023-07-23T19:39:04.514Z,100585.50
2023-07-23T19:41:31.035Z,100592.81
2023-07-23T19:43:57.648Z,100597.31
2023-07-23T19:46:24.107Z,100601.78
2023-07-23T19:48:50.588Z,100607.28
2023-07-23T19:51:17.031Z,100603.78
2023-07-23T19:53:43.481Z,100613.47
2023-07-23T19:56:14.390Z,100606.47
2023-07-23T19:58:41.000Z,100608.28
2023-07-23T20:01:07.722Z,100614.47
2023-07-23T20:03:34.461Z,100616.44
2023-07-23T20:06:01.022Z,100611.44
2023-07-23T20:08:27.535Z,100618.56
2023-07-23T20:10:53.975Z,100617.75
2023-07-23T20:13:20.494Z,100615.09
2023-07-23T20:15:49.341Z,100624.06
2023-07-23T20:18:15.792Z,100618.09
2023-07-23T20:20:48.491Z,100612.88
2023-07-23T20:23:14.936Z,100621.91
2023-07-23T20:25:41.634Z,100621.03
2023-07-23T20:28:09.280Z,100618.38
2023-07-23T20:30:36.230Z,100627.38
2023-07-23T20:33:02.906Z,100620.69
2023-07-23T20:35:30.097Z,100627.00
2023-07-23T20:37:56.805Z,100630.69
2023-07-23T20:40:23.620Z,100627.16
2023-07-23T20:42:50.348Z,100636.00
2023-07-23T20:45:16.833Z,100630.97
2023-07-23T20:47:43.269Z,100628.47
2023-07-23T20:50:10.015Z,100639.13
2023-07-23T20:52:36.583Z,100640.13
2023-07-23T20:55:03.752Z,100645.63
2023-07-23T20:57:30.193Z,100651.94
2023-07-23T20:59:56.648Z,100662.59
2023-07-23T21:02:23.225Z,100661.78
2023-07-23T21:04:49.710Z,100665.59
2023-07-23T21:07:16.176Z,100660.53
2023-07-23T21:09:42.642Z,100662.53
2023-07-23T21:12:08.996Z,100666.19
2023-07-23T21:14:37.811Z,100662.53
2023-07-23T21:17:04.899Z,100659.03
2023-07-23T21:19:31.527Z,100651.50
2023-07-23T21:21:57.955Z,100654.31
2023-07-23T21:24:27.723Z,100654.47
2023-07-23T21:26:54.184Z,100656.16
2023-07-23T21:29:20.895Z,100653.63
2023-07-23T21:31:47.321Z,100657.28
2023-07-23T21:34:13.698Z,100645.28
2023-07-23T21:36:40.745Z,100645.56
2023-07-23T21:39:07.692Z,100651.75
2023-07-23T21:41:34.137Z,100660.56
2023-07-23T21:44:00.577Z,100656.38
2023-07-23T21:46:26.982Z,100653.72
2023-07-23T21:48:53.877Z,100652.03
2023-07-23T21:51:20.341Z,100656.88
2023-07-23T21:53:46.771Z,100657.69
2023-07-23T21:56:13.217Z,100650.69
2023-07-23T21:58:39.612Z,100663.16
2023-07-23T22:01:06.133Z,100659.00
2023-07-23T22:03:35.406Z,100668.94
2023-07-23T22:06:01.922Z,100659.44
2023-07-23T22:08:28.443Z,100656.94
2023-07-23T22:10:54.932Z,100651.06
2023-07-23T22:13:21.470Z,100653.72
2023-07-23T22:15:47.940Z,100653.06
2023-07-23T22:18:14.422Z,100654.19
2023-07-23T22:20:40.928Z,100647.19
2023-07-23T22:23:07.445Z,100653.34
2023-07-23T22:25:33.879Z,100653.06
2023-07-23T22:28:02.939Z,100658.38
2023-07-23T22:30:31.587Z,100645.91
2023-07-23T22:32:58.851Z,100645.19
2023-07-23T22:35:25.535Z,100655.03
2023-07-23T22:37:52.254Z,100650.53
2023-07-23T22:40:18.766Z,100659.53
2023-07-23T22:42:47.207Z,100655.84
2023-07-23T22:45:14.508Z,100655.03
2023-07-23T22:47:41.193Z,100654.50
2023-07-23T22:50:07.995Z,100649.00
2023-07-23T22:52:37.128Z,100652.53
2023-07-23T22:55:04.338Z,100647.47
2023-07-23T22:57:31.494Z,100651.16
2023-07-23T23:00:00.913Z,100653.66
2023-07-23T23:02:27.836Z,100651.97
2023-07-23T23:04:54.283Z,100652.81
2023-07-23T23:07:20.779Z,100646.66
2023-07-23T23:09:47.265Z,100634.31
2023-07-23T23:12:13.735Z,100648.63
2023-07-23T23:14:40.134Z,100637.16
2023-07-23T23:17:06.663Z,100637.84
2023-07-23T23:19:33.149Z,100631.81
2023-07-23T23:21:59.574Z,100631.81
2023-07-23T23:24:26.117Z,100625.63
2023-07-23T23:26:52.574Z,100618.50
2023-07-23T23:29:19.021Z,100622.84
2023-07-23T23:31:45.512Z,100620.31
2023-07-23T23:34:11.964Z,100615.13
2023-07-23T23:36:38.369Z,100612.44
2023-07-23T23:39:04.908Z,100610.78
2023-07-23T23:41:31.486Z,100611.78
2023-07-23T23:43:57.923Z,100615.28
2023-07-23T23:46:24.461Z,100616.41
2023-07-23T23:48:50.840Z,100612.06
2023-07-23T23:51:19.517Z,100612.06
2023-07-23T23:53:47.579Z,100607.44
2023-07-23T23:56:14.138Z,100595.13
2023-07-23T23:58:40.548Z,100590.09
